Terminal Aerodrome Forecast
Issued by NWS Wakefield, VA

Home | Current Version | Previous Version | Text Only | Print | Product List | Glossary On
Versions: 1 2 3 4 5 6 7 8 9 10 11 12 13 14 15 16 17 18 19 20 21 22 23 24 25 26 27 28
000
FTUS41 KAKQ 242300
TAFORF
TAF
KORF 242340Z 2500/2524 29010KT P6SM BKN100
      TEMPO 2500/2502 BKN015
     FM250400 26007KT P6SM SKC
     FM251900 22008KT P6SM SCT250=

USA.gov is the U.S. government's official web portal to all federal, state and local government web resources and services.